createdAt,value
2022-10-07T00:01:03.912Z,2.70
2022-10-07T00:03:31.706Z,2.97
2022-10-07T00:06:16.248Z,2.85
2022-10-07T00:08:49.247Z,2.70
2022-10-07T00:11:23.171Z,2.90
2022-10-07T00:14:12.539Z,2.58
2022-10-07T00:16:42.085Z,3.00
2022-10-07T00:19:12.857Z,3.20
2022-10-07T00:21:40.852Z,3.30
2022-10-07T00:24:08.842Z,2.97
2022-10-07T00:26:37.365Z,3.22
2022-10-07T00:29:07.173Z,2.95
2022-10-07T00:31:36.999Z,3.42
2022-10-07T00:34:04.980Z,2.90
2022-10-07T00:36:34.968Z,3.20
2022-10-07T00:39:08.350Z,3.38
2022-10-07T00:41:43.620Z,3.65
2022-10-07T00:44:32.593Z,3.22
2022-10-07T00:47:04.098Z,3.08
2022-10-07T00:49:41.463Z,3.67
2022-10-07T00:52:09.258Z,3.13
2022-10-07T00:54:38.254Z,3.60
2022-10-07T00:57:06.115Z,3.15
2022-10-07T00:59:33.900Z,3.13
2022-10-07T01:02:01.249Z,3.05
2022-10-07T01:04:28.648Z,2.97
2022-10-07T01:06:56.377Z,2.50
2022-10-07T01:09:24.066Z,2.00
2022-10-07T01:12:27.151Z,2.00
2022-10-07T01:15:20.219Z,2.20
2022-10-07T01:18:04.468Z,2.28
2022-10-07T01:20:49.926Z,2.42
2022-10-07T01:23:42.166Z,2.30
2022-10-07T01:26:15.564Z,2.17
2022-10-07T01:29:05.140Z,2.22
2022-10-07T01:32:08.353Z,2.45
2022-10-07T01:34:37.440Z,2.55
2022-10-07T01:37:09.277Z,3.55
2022-10-07T01:39:50.780Z,2.58
2022-10-07T01:42:20.292Z,2.40
2022-10-07T01:44:53.051Z,2.50
2022-10-07T01:47:20.621Z,2.53
2022-10-07T01:49:51.241Z,2.47
2022-10-07T01:52:43.517Z,2.58
2022-10-07T01:55:11.411Z,2.70
2022-10-07T01:57:59.332Z,2.85
2022-10-07T02:00:28.011Z,2.60
2022-10-07T02:02:55.381Z,2.88
2022-10-07T02:05:37.073Z,2.45
2022-10-07T02:08:31.737Z,2.30
2022-10-07T02:11:12.352Z,3.00
2022-10-07T02:13:51.146Z,2.42
2022-10-07T02:16:54.887Z,2.33
2022-10-07T02:19:26.208Z,2.40
2022-10-07T02:21:57.528Z,2.45
2022-10-07T02:24:28.404Z,2.08
2022-10-07T02:27:00.006Z,1.95
2022-10-07T02:29:31.522Z,2.08
2022-10-07T02:32:02.589Z,1.83
2022-10-07T02:34:33.439Z,2.17
2022-10-07T02:37:11.987Z,1.70
2022-10-07T02:39:39.399Z,2.35
2022-10-07T02:42:17.033Z,2.20
2022-10-07T02:44:53.131Z,1.95
2022-10-07T02:47:29.331Z,1.98
2022-10-07T02:50:01.601Z,1.90
2022-10-07T02:52:32.193Z,2.17
2022-10-07T02:55:06.793Z,1.83
2022-10-07T02:57:38.435Z,1.92
2022-10-07T03:00:11.096Z,2.08
2022-10-07T03:02:57.426Z,1.75
2022-10-07T03:05:35.478Z,1.95
2022-10-07T03:08:10.095Z,1.85
2022-10-07T03:10:39.005Z,1.85
2022-10-07T03:13:09.005Z,3.17
2022-10-07T03:15:42.609Z,3.10
2022-10-07T03:18:28.561Z,3.05
2022-10-07T03:21:24.460Z,3.78
2022-10-07T03:23:55.668Z,3.38
2022-10-07T03:26:26.927Z,3.10
2022-10-07T03:28:55.507Z,2.63
2022-10-07T03:31:24.468Z,2.53
2022-10-07T03:33:57.173Z,3.38
2022-10-07T03:36:25.588Z,2.90
2022-10-07T03:38:55.787Z,2.30
2022-10-07T03:41:26.913Z,3.60
2022-10-07T03:43:59.419Z,3.38
2022-10-07T03:46:28.290Z,4.10
2022-10-07T03:48:55.693Z,4.28
2022-10-07T03:51:24.128Z,4.18
2022-10-07T03:53:54.779Z,5.03
2022-10-07T03:56:22.230Z,5.20
2022-10-07T03:58:49.713Z,4.20
2022-10-07T04:01:17.607Z,4.45
2022-10-07T04:03:51.158Z,4.68
2022-10-07T04:06:18.943Z,2.70
2022-10-07T04:08:46.808Z,2.30
2022-10-07T04:11:14.136Z,2.72
2022-10-07T04:13:44.560Z,2.17
2022-10-07T04:16:13.501Z,2.42
2022-10-07T04:18:45.197Z,2.38
2022-10-07T04:21:13.036Z,2.25
2022-10-07T04:23:42.621Z,2.55
2022-10-07T04:26:12.133Z,2.40
2022-10-07T04:28:44.129Z,1.90
2022-10-07T04:31:15.685Z,2.35
2022-10-07T04:33:46.703Z,2.30
2022-10-07T04:36:19.658Z,2.58
2022-10-07T04:38:56.938Z,3.42
2022-10-07T04:41:28.457Z,2.47
2022-10-07T04:43:58.049Z,3.15
2022-10-07T04:46:29.060Z,2.20
2022-10-07T04:49:02.225Z,9.82
2022-10-07T04:51:32.394Z,3.03
2022-10-07T04:54:01.547Z,2.90
2022-10-07T04:56:35.049Z,3.90
2022-10-07T04:59:06.065Z,3.50
2022-10-07T05:01:33.991Z,4.82
2022-10-07T05:04:01.353Z,3.40
2022-10-07T05:06:29.309Z,3.17
2022-10-07T05:08:56.911Z,3.00
2022-10-07T05:11:26.213Z,4.35
2022-10-07T05:14:02.568Z,4.18
2022-10-07T05:16:32.149Z,3.85
2022-10-07T05:18:59.893Z,3.20
2022-10-07T05:21:28.922Z,4.60
2022-10-07T05:23:58.392Z,4.88
2022-10-07T05:26:31.115Z,4.82
2022-10-07T05:29:01.480Z,10.52
2022-10-07T05:31:36.080Z,9.77
2022-10-07T05:34:04.895Z,9.40
2022-10-07T05:36:33.086Z,10.40
2022-10-07T05:39:01.461Z,9.98
2022-10-07T05:41:45.212Z,11.20
2022-10-07T05:44:15.958Z,9.90
2022-10-07T05:46:43.728Z,10.73
2022-10-07T05:49:12.743Z,9.25
2022-10-07T05:51:41.586Z,9.13
2022-10-07T05:54:08.955Z,6.28
2022-10-07T05:56:40.629Z,6.97
2022-10-07T05:59:09.419Z,4.63
2022-10-07T06:01:43.008Z,4.90
2022-10-07T06:04:15.486Z,4.68
2022-10-07T06:06:47.565Z,4.75
2022-10-07T06:09:33.433Z,4.45
2022-10-07T06:12:23.832Z,4.10
2022-10-07T06:14:53.151Z,3.13
2022-10-07T06:17:20.577Z,2.88
2022-10-07T06:19:49.963Z,3.28
2022-10-07T06:22:19.027Z,3.28
2022-10-07T06:24:47.210Z,3.28
2022-10-07T06:27:14.871Z,3.80
2022-10-07T06:29:43.412Z,3.20
2022-10-07T06:32:10.844Z,3.80
2022-10-07T06:34:39.645Z,3.40
2022-10-07T06:37:06.914Z,2.90
2022-10-07T06:39:34.280Z,2.30
2022-10-07T06:42:02.032Z,2.40
2022-10-07T06:44:38.612Z,2.97
2022-10-07T06:47:11.629Z,2.40
2022-10-07T06:49:41.994Z,2.20
2022-10-07T06:52:09.285Z,2.67
2022-10-07T06:54:37.498Z,2.15
2022-10-07T06:57:20.468Z,2.50
2022-10-07T06:59:55.257Z,2.35
2022-10-07T07:02:25.960Z,2.58
2022-10-07T07:04:57.817Z,2.83
2022-10-07T07:07:26.693Z,2.55
2022-10-07T07:09:54.699Z,2.63
2022-10-07T07:12:25.610Z,2.53
2022-10-07T07:14:55.469Z,2.60
2022-10-07T07:17:22.926Z,4.30
2022-10-07T07:19:50.469Z,4.50
2022-10-07T07:22:18.958Z,3.50
2022-10-07T07:24:46.643Z,5.30
2022-10-07T07:27:15.425Z,5.80
2022-10-07T07:29:44.054Z,6.07
2022-10-07T07:32:12.590Z,7.93
2022-10-07T07:34:42.905Z,6.38
2022-10-07T07:37:14.640Z,5.90
2022-10-07T07:39:47.085Z,5.80
2022-10-07T07:42:17.001Z,5.70
2022-10-07T07:44:44.419Z,5.32
2022-10-07T07:47:17.302Z,5.60
2022-10-07T07:49:46.306Z,6.70
2022-10-07T07:52:20.700Z,7.07
2022-10-07T07:54:48.902Z,6.35
2022-10-07T07:57:16.231Z,6.07
2022-10-07T07:59:43.649Z,6.97
2022-10-07T08:02:12.876Z,6.20
2022-10-07T08:04:43.744Z,6.25
2022-10-07T08:07:13.706Z,5.30
2022-10-07T08:09:44.274Z,6.22
2022-10-07T08:12:14.799Z,6.55
2022-10-07T08:14:43.519Z,6.55
2022-10-07T08:17:12.783Z,5.88
2022-10-07T08:19:40.534Z,5.45
2022-10-07T08:22:09.136Z,5.55
2022-10-07T08:24:37.897Z,6.00
2022-10-07T08:27:05.675Z,6.35
2022-10-07T08:29:33.155Z,6.88
2022-10-07T08:32:00.626Z,6.63
2022-10-07T08:34:27.867Z,6.22
2022-10-07T08:36:56.416Z,4.30
2022-10-07T08:39:24.937Z,4.88
2022-10-07T08:41:55.116Z,4.47
2022-10-07T08:44:36.248Z,4.18
2022-10-07T08:47:20.556Z,4.07
2022-10-07T08:49:47.826Z,3.63
2022-10-07T08:52:26.045Z,3.83
2022-10-07T08:54:53.781Z,3.83
2022-10-07T08:57:55.587Z,4.03
2022-10-07T09:00:25.172Z,3.65
2022-10-07T09:03:10.667Z,3.38
2022-10-07T09:05:41.436Z,3.35
2022-10-07T09:08:24.649Z,2.60
2022-10-07T09:10:53.666Z,2.17
2022-10-07T09:13:25.035Z,2.58
2022-10-07T09:16:12.215Z,2.50
2022-10-07T09:18:45.985Z,2.60
2022-10-07T09:21:19.168Z,3.10
2022-10-07T09:23:47.368Z,3.58
2022-10-07T09:26:17.017Z,4.25
2022-10-07T09:28:44.506Z,4.10
2022-10-07T09:31:15.384Z,3.20
2022-10-07T09:33:46.002Z,2.80
2022-10-07T09:36:19.283Z,2.28
2022-10-07T09:38:52.724Z,2.03
2022-10-07T09:41:35.659Z,1.73
2022-10-07T09:44:13.870Z,1.77
2022-10-07T09:46:54.537Z,2.13
2022-10-07T09:49:28.092Z,2.53
2022-10-07T09:52:17.113Z,3.75
2022-10-07T09:54:47.018Z,2.38
2022-10-07T09:57:27.848Z,2.20
2022-10-07T10:00:13.261Z,1.80
2022-10-07T10:02:46.578Z,2.20
2022-10-07T10:05:24.294Z,2.03
2022-10-07T10:07:58.204Z,2.10
2022-10-07T10:10:28.831Z,1.60
2022-10-07T10:12:58.476Z,1.77
2022-10-07T10:15:43.228Z,1.67
2022-10-07T10:18:33.783Z,1.80
2022-10-07T10:21:30.457Z,1.80
2022-10-07T10:24:06.346Z,1.88
2022-10-07T10:26:44.839Z,2.08
2022-10-07T10:29:35.657Z,2.00
2022-10-07T10:32:03.001Z,1.80
2022-10-07T10:34:39.095Z,2.22
2022-10-07T10:37:20.575Z,2.10
2022-10-07T10:40:09.143Z,2.13
2022-10-07T10:43:16.641Z,1.77
2022-10-07T10:46:26.960Z,2.08
2022-10-07T10:49:02.889Z,2.33
2022-10-07T10:51:59.665Z,2.63
2022-10-07T10:54:44.894Z,3.28
2022-10-07T10:57:35.578Z,3.33
2022-10-07T11:00:23.458Z,2.17
2022-10-07T11:03:05.836Z,2.38
2022-10-07T11:05:37.190Z,2.42
2022-10-07T11:08:22.285Z,2.90
2022-10-07T11:11:20.437Z,2.78
2022-10-07T11:13:58.871Z,2.40
2022-10-07T11:16:36.841Z,2.10
2022-10-07T11:19:16.812Z,2.65
2022-10-07T11:21:58.195Z,3.13
2022-10-07T11:24:43.817Z,3.25
2022-10-07T11:27:25.099Z,2.88
2022-10-07T11:29:57.612Z,3.30
2022-10-07T11:32:24.758Z,3.47
2022-10-07T11:35:20.790Z,3.03
2022-10-07T11:37:58.383Z,3.40
2022-10-07T11:40:31.539Z,3.35
2022-10-07T11:43:08.568Z,3.58
2022-10-07T11:45:50.135Z,3.00
2022-10-07T11:48:27.377Z,3.33
2022-10-07T11:51:04.544Z,3.17
2022-10-07T11:53:37.582Z,3.35
2022-10-07T11:56:16.677Z,2.75
2022-10-07T11:58:44.937Z,2.90
2022-10-07T12:01:48.492Z,2.97
2022-10-07T12:04:22.231Z,3.28
2022-10-07T12:07:27.277Z,2.72
2022-10-07T12:10:07.167Z,3.63
2022-10-07T12:12:46.686Z,3.13
2022-10-07T12:15:29.692Z,2.92
2022-10-07T12:18:06.285Z,3.92
2022-10-07T12:20:37.320Z,3.00
2022-10-07T12:23:22.675Z,3.53
2022-10-07T12:26:31.040Z,3.40
2022-10-07T12:28:59.067Z,3.00
2022-10-07T12:31:26.398Z,2.38
2022-10-07T12:33:57.969Z,2.20
2022-10-07T12:36:31.618Z,2.40
2022-10-07T12:39:02.655Z,2.85
2022-10-07T12:41:43.425Z,3.42
2022-10-07T12:44:31.800Z,3.20
2022-10-07T12:47:05.974Z,2.50
2022-10-07T12:49:51.555Z,2.10
2022-10-07T12:55:11.248Z,3.03
2022-10-07T12:57:43.366Z,2.85
2022-10-07T13:00:24.756Z,2.30
2022-10-07T13:03:36.446Z,2.03
2022-10-07T13:06:28.861Z,2.08
2022-10-07T13:09:37.736Z,2.28
2022-10-07T13:12:27.864Z,2.47
2022-10-07T13:15:00.616Z,2.72
2022-10-07T13:17:28.067Z,2.38
2022-10-07T13:20:33.570Z,2.17
2022-10-07T13:23:30.953Z,2.50
2022-10-07T13:26:01.829Z,2.15
2022-10-07T13:28:53.716Z,2.58
2022-10-07T13:31:26.176Z,2.55
2022-10-07T13:33:55.289Z,2.72
2022-10-07T13:36:32.734Z,1.70
2022-10-07T13:39:20.961Z,2.20
2022-10-07T13:41:51.052Z,1.73
2022-10-07T13:44:21.086Z,1.63
2022-10-07T13:47:10.322Z,1.80
2022-10-07T13:49:43.829Z,1.73
2022-10-07T13:52:37.345Z,1.77
2022-10-07T13:55:33.359Z,2.10
2022-10-07T13:58:04.722Z,1.70
2022-10-07T14:00:33.911Z,1.88
2022-10-07T14:03:02.206Z,2.20
2022-10-07T14:05:32.881Z,1.60
2022-10-07T14:08:11.400Z,1.45
2022-10-07T14:11:10.659Z,1.92
2022-10-07T14:13:38.141Z,1.98
2022-10-07T14:16:05.760Z,2.10
2022-10-07T14:18:33.202Z,2.25
2022-10-07T14:21:18.251Z,2.38
2022-10-07T14:23:47.294Z,2.17
2022-10-07T14:26:16.573Z,2.08
2022-10-07T14:28:44.658Z,2.70
2022-10-07T14:31:37.902Z,2.63
2022-10-07T14:34:35.333Z,3.20
2022-10-07T14:37:28.492Z,3.05
2022-10-07T14:39:59.130Z,3.17
2022-10-07T14:42:36.370Z,2.85
2022-10-07T14:45:08.573Z,3.63
2022-10-07T14:47:38.367Z,2.70
2022-10-07T14:50:06.360Z,3.10
2022-10-07T14:52:47.983Z,3.00
2022-10-07T14:55:28.346Z,3.13
2022-10-07T14:57:56.187Z,3.35
2022-10-07T15:00:25.856Z,3.33
2022-10-07T15:02:58.029Z,2.22
2022-10-07T15:05:26.707Z,2.83
2022-10-07T15:07:54.196Z,2.60
2022-10-07T15:10:23.989Z,2.40
2022-10-07T15:12:51.670Z,2.03
2022-10-07T15:15:19.663Z,2.20
2022-10-07T15:17:48.167Z,2.10
2022-10-07T15:20:17.361Z,2.40
2022-10-07T15:22:46.039Z,2.95
2022-10-07T15:25:15.674Z,2.40
2022-10-07T15:27:43.346Z,3.00
2022-10-07T15:30:11.472Z,2.65
2022-10-07T15:32:38.827Z,2.78
2022-10-07T15:35:06.713Z,3.45
2022-10-07T15:37:34.337Z,2.10
2022-10-07T15:40:01.735Z,2.30
2022-10-07T15:42:29.139Z,2.88
2022-10-07T15:44:56.577Z,3.55
2022-10-07T15:47:24.318Z,3.88
2022-10-07T15:49:51.702Z,3.70
2022-10-07T15:52:21.597Z,3.75
2022-10-07T15:54:49.012Z,3.38
2022-10-07T15:57:16.363Z,3.50
2022-10-07T15:59:43.768Z,3.42
2022-10-07T16:02:16.697Z,3.78
2022-10-07T16:04:47.424Z,3.78
2022-10-07T16:07:16.141Z,3.78
2022-10-07T16:09:43.440Z,4.68
2022-10-07T16:12:10.871Z,4.50
2022-10-07T16:14:39.187Z,4.20
2022-10-07T16:17:09.545Z,4.93
2022-10-07T16:19:36.896Z,4.45
2022-10-07T16:22:04.846Z,4.30
2022-10-07T16:24:35.493Z,4.72
2022-10-07T16:27:03.400Z,5.00
2022-10-07T16:29:50.174Z,5.28
2022-10-07T16:32:17.774Z,5.95
2022-10-07T16:34:45.502Z,4.85
2022-10-07T16:37:13.317Z,5.50
2022-10-07T16:39:40.760Z,4.65
2022-10-07T16:42:15.798Z,5.70
2022-10-07T16:44:46.238Z,5.18
2022-10-07T16:47:15.868Z,5.53
2022-10-07T16:49:43.344Z,6.30
2022-10-07T16:52:13.779Z,6.50
2022-10-07T16:54:41.503Z,6.80
2022-10-07T16:57:09.232Z,6.53
2022-10-07T16:59:36.647Z,6.75
2022-10-07T17:02:06.538Z,6.80
2022-10-07T17:04:33.934Z,6.70
2022-10-07T17:07:02.273Z,5.22
2022-10-07T17:09:29.666Z,5.85
2022-10-07T17:11:57.573Z,5.55
2022-10-07T17:14:25.338Z,5.40
2022-10-07T17:16:56.902Z,6.22
2022-10-07T17:19:27.214Z,7.35
2022-10-07T17:21:56.622Z,5.80
2022-10-07T17:24:24.297Z,8.93
2022-10-07T17:26:53.249Z,9.55
2022-10-07T17:29:26.979Z,7.93
2022-10-07T17:31:54.801Z,6.90
2022-10-07T17:34:24.053Z,8.23
2022-10-07T17:36:52.034Z,8.05
2022-10-07T17:39:19.689Z,8.88
2022-10-07T17:41:47.481Z,7.47
2022-10-07T17:44:15.650Z,7.13
2022-10-07T17:46:43.424Z,7.00
2022-10-07T17:49:13.656Z,12.27
2022-10-07T17:51:43.445Z,7.50
2022-10-07T17:54:12.789Z,8.25
2022-10-07T17:56:40.539Z,8.75
2022-10-07T17:59:08.034Z,8.23
2022-10-07T18:01:36.547Z,8.10
2022-10-07T18:04:10.932Z,10.98
2022-10-07T18:06:39.844Z,7.60
2022-10-07T18:09:15.291Z,8.10
2022-10-07T18:14:51.104Z,10.05
2022-10-07T18:17:21.026Z,7.38
2022-10-07T18:19:48.584Z,6.78
2022-10-07T18:22:15.980Z,7.82
2022-10-07T18:24:43.406Z,7.00
2022-10-07T18:27:10.812Z,6.47
2022-10-07T18:29:38.436Z,6.47
2022-10-07T18:32:07.779Z,6.75
2022-10-07T18:34:35.394Z,7.50
2022-10-07T18:37:03.029Z,7.05
2022-10-07T18:39:30.411Z,6.78
2022-10-07T18:41:58.515Z,6.63
2022-10-07T18:44:26.545Z,6.88
2022-10-07T18:46:55.425Z,6.30
2022-10-07T18:49:23.500Z,5.70
2022-10-07T18:51:51.328Z,6.28
2022-10-07T18:54:19.856Z,5.95
2022-10-07T18:56:48.522Z,7.18
2022-10-07T18:59:16.512Z,5.38
2022-10-07T19:01:49.295Z,5.63
2022-10-07T19:04:17.500Z,6.00
2022-10-07T19:06:46.174Z,6.28
2022-10-07T19:09:20.305Z,6.10
2022-10-07T19:11:48.832Z,6.63
2022-10-07T19:14:17.267Z,6.63
2022-10-07T19:16:46.818Z,6.97
2022-10-07T19:19:17.370Z,7.35
2022-10-07T19:21:46.816Z,6.55
2022-10-07T19:24:15.959Z,6.57
2022-10-07T19:26:49.069Z,6.28
2022-10-07T19:29:18.222Z,6.55
2022-10-07T19:31:48.960Z,6.93
2022-10-07T19:34:21.144Z,7.75
2022-10-07T19:36:50.147Z,7.47
2022-10-07T19:39:22.478Z,6.90
2022-10-07T19:41:51.373Z,6.18
2022-10-07T19:44:19.563Z,5.97
2022-10-07T19:46:50.539Z,5.47
2022-10-07T19:49:18.005Z,5.88
2022-10-07T19:51:45.845Z,5.30
2022-10-07T19:54:13.403Z,5.85
2022-10-07T19:56:41.640Z,5.30
2022-10-07T19:59:11.935Z,5.82
2022-10-07T20:01:42.293Z,5.50
2022-10-07T20:04:14.527Z,6.57
2022-10-07T20:06:42.880Z,6.18
2022-10-07T20:09:13.467Z,7.88
2022-10-07T20:11:40.917Z,9.70
2022-10-07T20:14:10.196Z,11.18
2022-10-07T20:16:38.478Z,6.63
2022-10-07T20:19:08.247Z,6.97
2022-10-07T20:21:37.521Z,6.03
2022-10-07T20:24:07.044Z,5.32
2022-10-07T20:26:36.911Z,5.72
2022-10-07T20:29:05.683Z,5.60
2022-10-07T20:31:38.801Z,5.75
2022-10-07T20:34:07.683Z,5.40
2022-10-07T20:36:37.622Z,5.35
2022-10-07T20:39:27.436Z,5.70
2022-10-07T20:42:13.307Z,5.47
2022-10-07T20:44:40.719Z,4.93
2022-10-07T20:47:10.276Z,5.78
2022-10-07T20:49:41.631Z,6.50
2022-10-07T20:52:14.125Z,6.32
2022-10-07T20:54:41.625Z,5.65
2022-10-07T20:57:11.882Z,6.32
2022-10-07T20:59:40.161Z,6.10
2022-10-07T21:02:09.704Z,6.55
2022-10-07T21:04:37.243Z,6.25
2022-10-07T21:07:04.583Z,7.13
2022-10-07T21:09:36.648Z,7.45
2022-10-07T21:12:07.714Z,7.95
2022-10-07T21:14:35.771Z,7.20
2022-10-07T21:17:05.084Z,7.75
2022-10-07T21:19:32.907Z,8.15
2022-10-07T21:22:00.336Z,7.78
2022-10-07T21:24:28.382Z,8.40
2022-10-07T21:26:55.891Z,10.77
2022-10-07T21:29:23.261Z,9.95
2022-10-07T21:31:50.602Z,8.18
2022-10-07T21:34:17.984Z,8.18
2022-10-07T21:36:50.330Z,7.53
2022-10-07T21:39:19.046Z,7.28
2022-10-07T21:41:47.712Z,7.25
2022-10-07T21:44:15.246Z,7.22
2022-10-07T21:46:42.868Z,7.32
2022-10-07T21:49:10.255Z,7.18
2022-10-07T21:51:38.312Z,7.05
2022-10-07T21:54:06.095Z,7.30
2022-10-07T21:56:34.237Z,7.53
2022-10-07T21:59:04.573Z,7.45
2022-10-07T22:01:35.668Z,7.50
2022-10-07T22:04:16.476Z,8.55
2022-10-07T22:07:03.261Z,7.95
2022-10-07T22:09:31.468Z,7.75
2022-10-07T22:11:59.002Z,7.45
2022-10-07T22:14:27.916Z,6.25
2022-10-07T22:16:55.579Z,6.45
2022-10-07T22:19:23.255Z,6.13
2022-10-07T22:21:50.705Z,5.97
2022-10-07T22:24:18.205Z,5.72
2022-10-07T22:26:48.385Z,6.15
2022-10-07T22:29:19.496Z,6.00
2022-10-07T22:31:47.304Z,6.15
2022-10-07T22:34:34.394Z,7.15
2022-10-07T22:37:02.305Z,6.00
2022-10-07T22:39:30.657Z,5.57
2022-10-07T22:41:58.915Z,5.53
2022-10-07T22:44:28.367Z,5.57
2022-10-07T22:46:57.129Z,5.00
2022-10-07T22:49:28.800Z,5.78
2022-10-07T22:51:58.551Z,5.97
2022-10-07T22:54:26.501Z,5.80
2022-10-07T22:56:53.830Z,4.90
2022-10-07T22:59:21.498Z,4.50
2022-10-07T23:01:48.800Z,4.78
2022-10-07T23:04:16.230Z,4.85
2022-10-07T23:06:43.487Z,4.47
2022-10-07T23:09:11.039Z,4.60
2022-10-07T23:11:38.371Z,4.03
2022-10-07T23:14:05.922Z,3.63
2022-10-07T23:16:34.404Z,3.58
2022-10-07T23:19:02.007Z,3.60
2022-10-07T23:21:34.173Z,3.65
2022-10-07T23:24:07.329Z,3.25
2022-10-07T23:26:35.645Z,3.47
2022-10-07T23:29:03.605Z,2.50
2022-10-07T23:31:32.840Z,2.55
2022-10-07T23:34:02.064Z,2.75
2022-10-07T23:36:29.857Z,3.10
2022-10-07T23:39:00.007Z,2.90
2022-10-07T23:41:29.849Z,3.00
2022-10-07T23:43:59.847Z,3.03
2022-10-07T23:46:29.032Z,2.97
2022-10-07T23:48:56.460Z,2.78
2022-10-07T23:51:26.324Z,3.05
2022-10-07T23:53:55.999Z,3.13
2022-10-07T23:56:23.587Z,3.30
2022-10-07T23:58:51.059Z,2.80
